• Join FlightAware (Why Join?)
  • Login
  • US Flag 
09:10AM EDT


 

Airport Tracker/Info


-or-


 

Live Flight TrackerFlight Track Log ✈ EJM826 ✈ 28-Jul-2013 ✈ KTRK - KHOU

Flight Track Log - Related Links

Times and Time Zones

All times are in EDT time to prevent confusion due to time zone crossing. See the EJM826 flight status page for this flight to view local times or setup timezone preferences in your user account.

Time Position Orientation Groundspeed Altitude Reporting Facility
EDT Latitude Longitude Course Direction KTS MPH feet Rate Location/Type
01:43PM 39.0959 -119.2515 108° East  Level Estimated
01:44PM 39.0579 -119.1041 108° East  Level Estimated
01:45PM 39.0197 -118.9568 108° East  Level Estimated
01:46PM 38.9814 -118.8097 109° East  Level Estimated
01:47PM 38.9428 -118.6627 109° East  Level Estimated
01:48PM 38.9041 -118.5159 109° East  Level Estimated
01:49PM 38.8652 -118.3692 109° East  Level Estimated
01:50PM 38.8260 -118.2227 109° East  Level Estimated
01:51PM 38.7868 -118.0764 109° East  Level Estimated
01:52PM 38.7473 -117.9303 109° East  Level Estimated
01:53PM 38.7076 -117.7842 109° East  Level Estimated
01:54PM 38.6678 -117.6384 109° East  Level Estimated
01:55PM 38.6278 -117.4927 109° East  Level Estimated
01:56PM 38.5876 -117.3472 109° East  Level Estimated
01:57PM 38.5472 -117.2018 110° East  Level Estimated
01:58PM 38.5066 -117.0566 110° East  Level Estimated
01:59PM 38.4659 -116.9116 110° East  Level Estimated
02:00PM 38.4250 -116.7668 110° East  Level Estimated
02:01PM 38.3839 -116.6221 110° East  Level Estimated
02:02PM 38.3426 -116.4775 110° East  Level Estimated
02:03PM 38.3012 -116.3332 110° East  Level Estimated
02:04PM 38.2595 -116.1890 110° East  Level Estimated
02:05PM 38.2177 -116.0449 110° East  Level Estimated
02:06PM 38.1757 -115.9010 110° East  Level Estimated
02:07PM 38.1336 -115.7573 110° East  Level Estimated
02:08PM 38.0913 -115.6138 111° Southeast  Level Estimated
02:08PM 39.0317 -115.6450 111° Southeast 485 558 41,000  Level Salt Lake Center
02:09PM 38.0488 -115.4704 111° Southeast  Level Estimated
02:09PM 38.9889 -115.4794 108° East 486 559 41,000  Level Salt Lake Center
02:10PM 38.0061 -115.3272 111° Southeast  Level Estimated
02:10PM 38.9392 -115.2861 108° East 487 560 41,000  Level Salt Lake Center
02:11PM 37.9632 -115.1842 111° Southeast  Level Estimated
02:11PM 38.8967 -115.1217 108° East 486 559 41,000  Level Salt Lake Center
02:12PM 37.9202 -115.0413 111° Southeast  Level Estimated
02:12PM 38.8539 -114.9553 108° East 490 564 41,000  Level Salt Lake Center
02:13PM 37.8908 -114.9439 111° Southeast  Level Estimated
02:13PM 38.8111 -114.7917 109° East 486 559 41,000  Level Salt Lake Center
02:14PM 38.7661 -114.6283 109° East 486 559 41,000  Level Salt Lake Center
02:15PM 38.7131 -114.4314 109° East 486 559 41,000  Level Salt Lake Center
02:16PM 38.6683 -114.2683 109° East 485 558 41,000  Level Salt Lake Center
02:17PM 38.6244 -114.1044 109° East 485 558 41,000  Level Salt Lake Center
02:18PM 38.5792 -113.9403 109° East 491 565 41,000  Level Salt Lake Center
02:19PM 38.5336 -113.7767 110° East 489 563 41,000  Level Salt Lake Center
02:20PM 38.4878 -113.6144 110° East 486 559 41,000  Level Salt Lake Center
02:21PM 38.4425 -113.4544 110° East 481 554 41,000  Level Salt Lake Center
02:22PM 38.3886 -113.2594 109° East 483 556 41,000  Level Salt Lake Center
02:24PM 38.3362 -113.1169 115° Southeast  Level Estimated
02:31PM 38.0892 -112.4546 115° Southeast  Level Estimated
02:32PM 38.0536 -112.3604 116° Southeast  Level Estimated
02:33PM 38.0214 -112.2753 116° Southeast  Level Estimated
02:34PM 37.9892 -112.1904 116° Southeast  Level Estimated
02:35PM 37.9568 -112.1055 116° Southeast  Level Estimated
02:36PM 37.9244 -112.0207 116° Southeast  Level Estimated
02:37PM 37.8920 -111.9359 116° Southeast  Level Estimated
02:38PM 37.8595 -111.8513 116° Southeast  Level Estimated
02:39PM 37.8269 -111.7667 116° Southeast  Level Estimated
02:40PM 37.7943 -111.6822 116° Southeast  Level Estimated
02:41PM 37.7616 -111.5977 116° Southeast  Level Estimated
02:42PM 37.7289 -111.5133 116° Southeast  Level Estimated
02:43PM 37.6960 -111.4290 116° Southeast  Level Estimated
02:44PM 37.6632 -111.3448 116° Southeast  Level Estimated
02:45PM 37.6302 -111.2607 116° Southeast  Level Estimated
02:46PM 37.5973 -111.1766 116° Southeast  Level Estimated
02:47PM 37.5642 -111.0926 116° Southeast  Level Estimated
02:48PM 37.5311 -111.0087 116° Southeast  Level Estimated
02:49PM 37.4979 -110.9249 116° Southeast  Level Estimated
02:50PM 37.4647 -110.8411 117° Southeast  Level Estimated
02:51PM 37.4314 -110.7574 117° Southeast  Level Estimated
02:52PM 37.3981 -110.6738 117° Southeast  Level Estimated
02:53PM 37.3647 -110.5902 117° Southeast  Level Estimated
02:54PM 37.3312 -110.5068 117° Southeast  Level Estimated
02:55PM 37.2977 -110.4233 117° Southeast  Level Estimated
02:56PM 37.2641 -110.3400 117° Southeast  Level Estimated
02:57PM 37.2305 -110.2568 117° Southeast  Level Estimated
02:58PM 37.1968 -110.1736 117° Southeast  Level Estimated
02:59PM 37.1630 -110.0905 117° Southeast  Level Estimated
03:00PM 37.1292 -110.0075 117° Southeast  Level Estimated
03:01PM 37.0953 -109.9245 117° Southeast  Level Estimated
03:02PM 37.0614 -109.8416 117° Southeast  Level Estimated
03:03PM 37.0274 -109.7588 117° Southeast  Level Estimated
03:04PM 36.9934 -109.6761 117° Southeast  Level Estimated
03:05PM 36.9593 -109.5935 117° Southeast  Level Estimated
03:06PM 36.9251 -109.5109 117° Southeast  Level Estimated
03:07PM 36.8909 -109.4284 117° Southeast  Level Estimated
03:08PM 36.8567 -109.3459 117° Southeast  Level Estimated
03:09PM 36.8257 -109.2716 117° Southeast  Level Estimated
03:10PM 36.7947 -109.1973 118° Southeast  Level Estimated
03:11PM 36.7636 -109.1231 118° Southeast  Level Estimated
03:12PM 36.7324 -109.0489 118° Southeast  Level Estimated
03:13PM 36.7013 -108.9748 118° Southeast  Level Estimated
03:14PM 36.6701 -108.9007 118° Southeast  Level Estimated
03:15PM 36.6388 -108.8267 118° Southeast  Level Estimated
03:16PM 36.6075 -108.7528 118° Southeast  Level Estimated
03:17PM 36.5761 -108.6789 118° Southeast  Level Estimated
03:18PM 36.5448 -108.6051 118° Southeast  Level Estimated
03:19PM 36.5133 -108.5314 118° Southeast  Level Estimated
03:20PM 36.4818 -108.4577 118° Southeast  Level Estimated
03:21PM 36.4503 -108.3841 118° Southeast  Level Estimated
03:22PM 36.4187 -108.3105 118° Southeast  Level Estimated
03:23PM 36.3871 -108.2370 118° Southeast  Level Estimated
03:24PM 36.3554 -108.1635 118° Southeast  Level Estimated
03:25PM 36.3237 -108.0901 118° Southeast  Level Estimated
03:26PM 36.2920 -108.0168 118° Southeast  Level Estimated
03:27PM 36.2602 -107.9435 118° Southeast  Level Estimated
03:28PM 36.2283 -107.8703 118° Southeast  Level Estimated
03:29PM 36.1964 -107.7972 118° Southeast  Level Estimated
03:30PM 36.1645 -107.7241 118° Southeast  Level Estimated
03:31PM 36.1325 -107.6511 118° Southeast  Level Estimated
03:32PM 36.1005 -107.5781 118° Southeast  Level Estimated
03:33PM 36.0684 -107.5052 119° Southeast  Level Estimated
03:34PM 36.0363 -107.4323 119° Southeast  Level Estimated
03:35PM 36.0041 -107.3595 119° Southeast  Level Estimated
03:36PM 35.9719 -107.2868 119° Southeast  Level Estimated
03:37PM 35.9397 -107.2141 119° Southeast  Level Estimated
03:38PM 35.9074 -107.1415 119° Southeast  Level Estimated
03:39PM 35.8750 -107.0690 119° Southeast  Level Estimated
03:40PM 35.8427 -106.9965 119° Southeast  Level Estimated
03:41PM 35.8102 -106.9240 119° Southeast  Level Estimated
03:42PM 35.7778 -106.8516 119° Southeast  Level Estimated
03:43PM 35.7453 -106.7793 119° Southeast  Level Estimated
03:44PM 35.7127 -106.7071 119° Southeast  Level Estimated
03:45PM 35.6801 -106.6349 119° Southeast  Level Estimated
03:46PM 35.6475 -106.5627 119° Southeast  Level Estimated
03:47PM 35.6148 -106.4906 119° Southeast  Level Estimated
03:48PM 35.5821 -106.4186 119° Southeast  Level Estimated
03:49PM 35.5493 -106.3467 119° Southeast  Level Estimated
03:50PM 35.5165 -106.2748 119° Southeast  Level Estimated
03:51PM 35.4837 -106.2029 119° Southeast  Level Estimated
03:52PM 35.4508 -106.1311 119° Southeast  Level Estimated
03:53PM 35.4179 -106.0594 119° Southeast  Level Estimated
03:54PM 35.3849 -105.9877 119° Southeast  Level Estimated
03:55PM 35.3518 -105.9161 119° Southeast  Level Estimated
03:56PM 35.3188 -105.8446 120° Southeast  Level Estimated
03:57PM 35.2857 -105.7731 120° Southeast  Level Estimated
03:58PM 35.2525 -105.7016 120° Southeast  Level Estimated
03:59PM 35.2193 -105.6302 120° Southeast  Level Estimated
04:00PM 35.1861 -105.5589 120° Southeast  Level Estimated
04:01PM 35.1529 -105.4877 120° Southeast  Level Estimated
04:02PM 35.1195 -105.4165 120° Southeast  Level Estimated
04:03PM 35.0862 -105.3453 120° Southeast  Level Estimated
04:04PM 35.0528 -105.2742 120° Southeast  Level Estimated
04:05PM 35.0193 -105.2032 120° Southeast  Level Estimated
04:06PM 34.9859 -105.1322 120° Southeast  Level Estimated
04:07PM 34.9523 -105.0613 120° Southeast  Level Estimated
04:08PM 34.9188 -104.9905 120° Southeast  Level Estimated
04:09PM 34.8852 -104.9197 120° Southeast  Level Estimated
04:10PM 34.8515 -104.8489 120° Southeast  Level Estimated
04:11PM 34.8179 -104.7783 120° Southeast  Level Estimated
04:12PM 34.7841 -104.7076 120° Southeast  Level Estimated
04:13PM 34.7504 -104.6371 120° Southeast  Level Estimated
04:14PM 34.7165 -104.5666 120° Southeast  Level Estimated
04:15PM 34.6827 -104.4961 120° Southeast  Level Estimated
04:16PM 34.6488 -104.4257 120° Southeast  Level Estimated
04:17PM 34.6149 -104.3554 120° Southeast  Level Estimated
04:18PM 34.5809 -104.2851 120° Southeast  Level Estimated
04:19PM 34.5469 -104.2149 120° Southeast  Level Estimated
04:20PM 34.5129 -104.1447 120° Southeast  Level Estimated
04:21PM 34.4788 -104.0746 121° Southeast  Level Estimated
04:22PM 34.4446 -104.0046 121° Southeast  Level Estimated
04:23PM 34.4105 -103.9346 121° Southeast  Level Estimated
04:24PM 34.3763 -103.8646 121° Southeast  Level Estimated
04:25PM 34.3420 -103.7948 121° Southeast  Level Estimated
04:26PM 34.3077 -103.7250 121° Southeast  Level Estimated
04:27PM 34.2734 -103.6552 121° Southeast  Level Estimated
04:28PM 34.2390 -103.5855 121° Southeast  Level Estimated
04:29PM 34.2046 -103.5158 121° Southeast  Level Estimated
04:30PM 34.1702 -103.4463 121° Southeast  Level Estimated
04:31PM 34.1357 -103.3767 121° Southeast  Level Estimated
04:32PM 34.1011 -103.3072 121° Southeast  Level Estimated
04:33PM 34.0666 -103.2378 121° Southeast  Level Estimated
04:34PM 34.0320 -103.1685 121° Southeast  Level Estimated
04:35PM 33.9973 -103.0992 121° Southeast  Level Estimated
04:36PM 33.9627 -103.0299 121° Southeast  Level Estimated
04:37PM 33.9279 -102.9607 121° Southeast  Level Estimated
04:38PM 33.8932 -102.8916 121° Southeast  Level Estimated
04:39PM 33.8584 -102.8225 121° Southeast  Level Estimated
04:40PM 33.8236 -102.7535 121° Southeast  Level Estimated
04:41PM 33.7887 -102.6845 121° Southeast  Level Estimated
04:42PM 33.7538 -102.6156 121° Southeast  Level Estimated
04:43PM 33.7188 -102.5467 121° Southeast  Level Estimated
04:44PM 33.6838 -102.4779 121° Southeast  Level Estimated
04:45PM 33.6488 -102.4092 121° Southeast  Level Estimated
04:46PM 33.6137 -102.3405 121° Southeast  Level Estimated
04:47PM 33.5786 -102.2719 122° Southeast  Level Estimated
04:48PM 33.5435 -102.2033 122° Southeast  Level Estimated
04:49PM 33.5083 -102.1348 122° Southeast  Level Estimated
04:50PM 33.4731 -102.0663 122° Southeast  Level Estimated
04:51PM 33.4379 -101.9979 122° Southeast  Level Estimated
04:52PM 33.4026 -101.9295 122° Southeast  Level Estimated
04:53PM 33.3672 -101.8612 122° Southeast  Level Estimated
04:54PM 33.3319 -101.7930 122° Southeast  Level Estimated
04:55PM 33.2965 -101.7248 122° Southeast  Level Estimated
04:56PM 33.2610 -101.6567 122° Southeast  Level Estimated
04:57PM 33.2255 -101.5886 122° Southeast  Level Estimated
04:58PM 33.1900 -101.5206 122° Southeast  Level Estimated
04:59PM 33.1545 -101.4526 122° Southeast  Level Estimated
05:00PM 33.1189 -101.3847 122° Southeast  Level Estimated
05:01PM 33.0833 -101.3168 122° Southeast  Level Estimated
05:02PM 33.0476 -101.2490 122° Southeast  Level Estimated
05:03PM 33.0119 -101.1813 122° Southeast  Level Estimated
05:04PM 32.9762 -101.1136 122° Southeast  Level Estimated
05:05PM 32.9404 -101.0460 122° Southeast  Level Estimated
05:06PM 32.9046 -100.9784 122° Southeast  Level Estimated
05:07PM 32.8688 -100.9108 122° Southeast  Level Estimated
05:08PM 32.8329 -100.8434 122° Southeast  Level Estimated
05:09PM 32.7970 -100.7759 122° Southeast  Level Estimated
05:10PM 32.7610 -100.7086 122° Southeast  Level Estimated
05:11PM 32.7250 -100.6413 122° Southeast  Level Estimated
05:12PM 32.6890 -100.5740 122° Southeast  Level Estimated
05:13PM 32.6529 -100.5068 122° Southeast  Level Estimated
05:14PM 32.6168 -100.4397 123° Southeast  Level Estimated
05:15PM 32.5807 -100.3726 123° Southeast  Level Estimated
05:16PM 32.5445 -100.3055 123° Southeast  Level Estimated
05:17PM 32.5083 -100.2386 123° Southeast  Level Estimated
05:18PM 32.4721 -100.1716 123° Southeast  Level Estimated
05:19PM 32.4358 -100.1048 123° Southeast  Level Estimated
05:20PM 32.3995 -100.0379 123° Southeast  Level Estimated
05:21PM 32.3632 -99.9712 123° Southeast  Level Estimated
05:22PM 32.3268 -99.9044 123° Southeast  Level Estimated
05:23PM 32.2904 -99.8378 123° Southeast  Level Estimated
05:24PM 32.2539 -99.7712 123° Southeast  Level Estimated
05:25PM 32.2175 -99.7046 123° Southeast  Level Estimated
05:26PM 32.1809 -99.6381 123° Southeast  Level Estimated
05:27PM 32.1444 -99.5717 123° Southeast  Level Estimated
05:28PM 32.1078 -99.5053 123° Southeast  Level Estimated
05:29PM 32.0712 -99.4389 123° Southeast  Level Estimated
05:30PM 32.0345 -99.3727 123° Southeast  Level Estimated
05:31PM 31.9978 -99.3064 123° Southeast  Level Estimated
05:32PM 31.9611 -99.2402 123° Southeast  Level Estimated
05:33PM 31.9243 -99.1741 123° Southeast  Level Estimated
05:34PM 31.8875 -99.1080 123° Southeast  Level Estimated
05:35PM 31.8507 -99.0420 123° Southeast  Level Estimated
05:36PM 31.8139 -98.9760 123° Southeast  Level Estimated
05:37PM 31.7770 -98.9101 123° Southeast  Level Estimated
05:38PM 31.7400 -98.8442 123° Southeast  Level Estimated
05:39PM 31.7031 -98.7784 123° Southeast  Level Estimated
05:40PM 31.6660 -98.7127 123° Southeast  Level Estimated
05:41PM 31.6290 -98.6470 123° Southeast  Level Estimated
05:42PM 31.5919 -98.5813 124° Southeast  Level Estimated
05:43PM 31.5548 -98.5157 124° Southeast  Level Estimated
05:44PM 31.5177 -98.4501 124° Southeast  Level Estimated
05:45PM 31.4806 -98.3847 124° Southeast  Level Estimated
05:46PM 31.4433 -98.3192 124° Southeast  Level Estimated
05:47PM 31.4061 -98.2538 124° Southeast  Level Estimated
05:48PM 31.3689 -98.1885 124° Southeast  Level Estimated
05:49PM 31.3316 -98.1232 124° Southeast  Level Estimated
05:50PM 31.2942 -98.0579 124° Southeast  Level Estimated
05:51PM 31.2568 -97.9927 124° Southeast  Level Estimated
05:52PM 31.2194 -97.9276 124° Southeast  Level Estimated
05:53PM 31.1820 -97.8625 124° Southeast  Level Estimated
05:54PM 31.1446 -97.7975 124° Southeast  Level Estimated
05:55PM 31.1071 -97.7325 124° Southeast  Level Estimated
05:56PM 31.0695 -97.6676 124° Southeast  Level Estimated
05:57PM 31.0320 -97.6027 124° Southeast  Level Estimated
05:58PM 30.9944 -97.5379 124° Southeast  Level Estimated
05:59PM 30.9568 -97.4731 124° Southeast  Level Estimated
06:00PM 30.9191 -97.4083 124° Southeast  Level Estimated
06:01PM 30.8814 -97.3437 124° Southeast  Level Estimated
06:02PM 30.8437 -97.2791 124° Southeast  Level Estimated
06:03PM 30.8059 -97.2145 124° Southeast  Level Estimated
06:04PM 30.7681 -97.1500 124° Southeast  Level Estimated
06:05PM 30.7303 -97.0855 124° Southeast  Level Estimated
06:06PM 30.6925 -97.0211 124° Southeast  Level Estimated
06:07PM 30.6546 -96.9567 124° Southeast  Level Estimated
06:08PM 30.6167 -96.8924 124° Southeast  Level Estimated
06:09PM 30.5787 -96.8281 124° Southeast  Level Estimated
06:10PM 30.5407 -96.7639 124° Southeast  Level Estimated
06:11PM 30.5027 -96.6997 124° Southeast  Level Estimated
06:12PM 30.4647 -96.6356 125° Southeast  Level Estimated
06:13PM 30.4266 -96.5715 125° Southeast  Level Estimated
06:14PM 30.3885 -96.5075 125° Southeast  Level Estimated
06:15PM 30.3504 -96.4435 125° Southeast  Level Estimated
06:16PM 30.3122 -96.3796 125° Southeast  Level Estimated
06:17PM 30.2740 -96.3158 125° Southeast  Level Estimated
06:18PM 30.2358 -96.2519 125° Southeast  Level Estimated
06:19PM 30.1975 -96.1882 125° Southeast  Level Estimated
06:20PM 30.1592 -96.1244 125° Southeast  Level Estimated
06:21PM 30.1209 -96.0608 125° Southeast  Level Estimated
06:22PM 30.0826 -95.9971 125° Southeast  Level Estimated
06:23PM 30.0442 -95.9336 125° Southeast  Level Estimated
06:24PM 30.0058 -95.8701 125° Southeast  Level Estimated
06:25PM 29.9673 -95.8066 125° Southeast  Level Estimated
06:26PM 29.9289 -95.7432 125° Southeast  Level Estimated
06:27PM 29.8904 -95.6798 125° Southeast  Level Estimated
06:28PM 29.8518 -95.6164 125° Southeast  Level Estimated
06:29PM 29.8133 -95.5532 125° Southeast  Level Estimated
06:30PM 29.7747 -95.4899 125° Southeast  Level Estimated
06:31PM 29.7360 -95.4268 125° Southeast  Level Estimated
06:32PM 29.6974 -95.3636 125° Southeast  Level Estimated
06:33PM 29.6587 -95.3006 125° Southeast  Level Estimated
06:34PM 29.6454 -95.2789 125° Southeast  Level Estimated
06:35PM 29.6454 -95.2789 146° Southeast  Level Estimated
06:36PM 29.6454 -95.2789 146° Southeast  Level Estimated
06:37PM 29.6454 -95.2789 146° Southeast  Level Estimated
06:38PM 29.6454 -95.2789 146° Southeast  Level Estimated
06:39PM 29.6454 -95.2789 146° Southeast  Level Estimated
06:40PM 29.6454 -95.2789 146° Southeast  Level Estimated
06:41PM 29.6454 -95.2789 146° Southeast  Level Estimated
06:42PM 29.6454 -95.2789 146° Southeast  Level Estimated
06:43PM 29.6454 -95.2789 146° Southeast  Level Estimated
06:44PM 29.6454 -95.2789 146° Southeast  Level Estimated
06:45PM 29.6454 -95.2789 146° Southeast  Level Estimated
06:46PM 29.6454 -95.2789 146° Southeast  Level Estimated
06:47PM 29.6454 -95.2789 146° Southeast  Level Estimated
06:48PM 29.6454 -95.2789 146° Southeast  Level Estimated
06:49PM 29.6454 -95.2789 146° Southeast  Level Estimated
06:50PM 29.6454 -95.2789 146° Southeast  Level Estimated
06:51PM 29.6454 -95.2789 146° Southeast  Level Estimated
06:52PM 29.6454 -95.2789 146° Southeast  Level Estimated
06:53PM 29.6454 -95.2789 146° Southeast  Level Estimated
06:54PM 29.6454 -95.2789 146° Southeast  Level Estimated
06:55PM 29.6454 -95.2789 146° Southeast  Level Estimated
06:56PM 29.6454 -95.2789 146° Southeast  Level Estimated
06:57PM 29.6454 -95.2789 146° Southeast  Level Estimated
06:58PM 29.6454 -95.2789 146° Southeast  Level Estimated
06:59PM 29.6454 -95.2789 146° Southeast  Level Estimated
07:00PM 29.6454 -95.2789 146° Southeast  Level Estimated
07:01PM 29.6454 -95.2789 146° Southeast  Level Estimated
07:02PM 29.6454 -95.2789 146° Southeast  Level Estimated
07:03PM 29.6454 -95.2789 146° Southeast  Level Estimated
07:04PM 29.6454 -95.2789 146° Southeast  Level Estimated
07:05PM 29.6454 -95.2789 146° Southeast  Level Estimated
07:06PM 29.6454 -95.2789 146° Southeast  Level Estimated
07:07PM 29.6454 -95.2789 146° Southeast  Level Estimated